Time;durP1;ratioP1;P1;durP2;ratioP2;P2;SDS_P1;SDS_P2;PMS_P1;PMS_P2;Temp;Humidity;BMP_temperature;BMP_pressure;BME280_temperature;BME280_humidity;BME280_pressure;Samples;Min_cycle;Max_cycle;Signal;HPM_P1;HPM_P2
2022/07/09 00:00:13;;;;;;;4.57;2.15;;;;;;;20.25;48.69;100082.66;4498835;31;32004;-60
2022/07/09 00:02:40;;;;;;;4.87;2.15;;;;;;;20.52;48.21;100083.41;4490146;31;33545;-60
2022/07/09 00:05:08;;;;;;;6.12;2.00;;;;;;;20.81;47.84;100085.56;4499414;31;32528;-60
2022/07/09 00:07:43;;;;;;;5.95;1.95;;;;;;;20.25;48.86;100089.97;4487393;31;33500;-59
2022/07/09 00:10:11;;;;;;;4.47;2.08;;;;;;;20.17;48.46;100103.56;4487910;31;33491;-60
2022/07/09 00:12:39;;;;;;;4.35;2.00;;;;;;;20.55;48.38;100098.53;4489222;31;34118;-59
2022/07/09 00:15:07;;;;;;;4.43;2.03;;;;;;;20.80;47.40;100099.31;4489450;31;33643;-59
2022/07/09 00:17:35;;;;;;;4.72;2.00;;;;;;;21.27;46.38;100102.13;4486660;31;34631;-60
2022/07/09 00:20:04;;;;;;;4.25;1.67;;;;;;;20.85;46.85;100103.25;4483767;31;33249;-58
2022/07/09 00:22:32;;;;;;;6.00;2.25;;;;;;;20.93;47.25;100097.81;4488558;31;36017;-59
2022/07/09 00:25:01;;;;;;;4.65;2.33;;;;;;;20.76;47.29;100100.69;4491364;31;35102;-59
2022/07/09 00:27:28;;;;;;;3.53;1.75;;;;;;;20.65;47.46;100093.75;4493119;31;33733;-59
2022/07/09 00:29:56;;;;;;;3.53;1.70;;;;;;;20.64;48.11;100097.47;4498809;31;33463;-59
2022/07/09 00:32:24;;;;;;;4.37;2.15;;;;;;;20.14;49.34;100098.47;4489566;31;34658;-60
2022/07/09 00:34:51;;;;;;;6.68;2.22;;;;;;;20.31;48.47;100102.88;4485860;31;33990;-61
2022/07/09 00:37:19;;;;;;;5.60;1.80;;;;;;;20.83;47.21;100093.53;4489100;31;34191;-62
2022/07/09 00:39:47;;;;;;;7.15;1.80;;;;;;;20.50;48.02;100090.00;4489087;31;34606;-61
2022/07/09 00:42:14;;;;;;;4.68;2.00;;;;;;;20.47;48.50;100092.00;4488578;31;34901;-61
2022/07/09 00:44:42;;;;;;;7.35;2.20;;;;;;;20.52;48.13;100090.72;4485990;31;32517;-61
2022/07/09 00:47:10;;;;;;;4.57;1.70;;;;;;;20.88;47.63;100091.16;4487064;31;33834;-60
2022/07/09 00:49:42;;;;;;;5.62;2.10;;;;;;;21.06;46.41;100096.38;4487197;31;30919;-61
2022/07/09 00:52:13;;;;;;;4.95;1.60;;;;;;;20.94;46.55;100096.78;4484354;31;33829;-61
2022/07/09 00:54:41;;;;;;;5.20;1.87;;;;;;;21.10;46.40;100092.31;4488716;31;34298;-62
2022/07/09 00:57:10;;;;;;;10.07;2.35;;;;;;;20.72;47.70;100097.47;4487223;31;34722;-61
2022/07/09 00:59:39;;;;;;;5.03;1.65;;;;;;;21.39;45.95;100086.28;4488025;31;32935;-60
2022/07/09 01:02:08;;;;;;;10.65;2.15;;;;;;;21.69;45.47;100090.06;4489577;31;36207;-62
2022/07/09 01:04:37;;;;;;;4.10;1.92;;;;;;;21.39;45.40;100094.47;4488576;31;35823;-60
2022/07/09 01:07:05;;;;;;;2.85;1.48;;;;;;;21.43;45.22;100090.34;4485853;31;33349;-60
2022/07/09 01:09:32;;;;;;;4.75;1.90;;;;;;;21.86;44.39;100090.81;4488216;31;33293;-60
2022/07/09 01:12:01;;;;;;;6.57;1.90;;;;;;;21.85;44.31;100092.69;4488781;31;34953;-59
2022/07/09 01:14:28;;;;;;;7.47;2.00;;;;;;;21.87;44.50;100087.91;4487994;31;36104;-59
2022/07/09 01:17:00;;;;;;;9.23;2.00;;;;;;;22.14;43.81;100084.84;4482928;31;33256;-59
2022/07/09 01:19:29;;;;;;;4.18;1.70;;;;;;;21.81;44.10;100085.06;4488714;31;33641;-60
2022/07/09 01:21:57;;;;;;;6.28;2.42;;;;;;;21.95;44.31;100081.56;4486710;31;34434;-59
2022/07/09 01:24:32;;;;;;;4.10;1.50;;;;;;;22.09;43.74;100082.69;4489925;31;33800;-60
2022/07/09 01:27:00;;;;;;;8.00;1.77;;;;;;;22.32;42.96;100086.28;4493990;31;34003;-59
2022/07/09 01:29:28;;;;;;;5.43;2.08;;;;;;;21.92;44.35;100071.00;4489005;31;34723;-59
2022/07/09 01:31:56;;;;;;;6.22;1.92;;;;;;;21.58;44.83;100079.56;4493549;31;35359;-60
2022/07/09 01:34:23;;;;;;;7.72;2.03;;;;;;;22.06;43.57;100067.53;4496380;31;32735;-59
2022/07/09 01:36:51;;;;;;;8.93;2.30;;;;;;;21.68;43.98;100068.47;4495685;31;33574;-61
2022/07/09 01:39:18;;;;;;;6.30;2.05;;;;;;;21.81;43.69;100063.25;4496442;31;33082;-61
2022/07/09 01:41:46;;;;;;;4.93;2.03;;;;;;;21.60;44.09;100051.13;4497954;31;34012;-60
2022/07/09 01:44:13;;;;;;;8.23;2.10;;;;;;;21.45;45.05;100050.19;4498514;31;33985;-62
2022/07/09 01:46:41;;;;;;;6.22;2.15;;;;;;;21.59;44.51;100041.25;4494089;31;34531;-61
2022/07/09 01:49:09;;;;;;;4.80;1.90;;;;;;;21.58;44.31;100049.63;4496905;31;33185;-62
2022/07/09 01:51:36;;;;;;;5.03;2.03;;;;;;;21.15;45.27;100051.78;4495215;31;33940;-61
2022/07/09 01:54:04;;;;;;;5.30;1.70;;;;;;;20.34;47.58;100059.06;4495327;31;34054;-61
2022/07/09 01:56:32;;;;;;;5.07;1.77;;;;;;;20.32;47.45;100058.41;4497466;31;34381;-62
2022/07/09 01:59:00;;;;;;;6.07;1.92;;;;;;;21.06;45.88;100063.72;4491082;31;34441;-61
2022/07/09 02:01:28;;;;;;;5.95;1.90;;;;;;;20.97;46.09;100059.34;4496756;31;33453;-63
2022/07/09 02:03:55;;;;;;;3.67;1.67;;;;;;;20.95;46.02;100056.81;4495885;31;33874;-61
2022/07/09 02:06:23;;;;;;;4.55;1.75;;;;;;;20.89;46.21;100046.59;4499320;31;35035;-60
2022/07/09 02:08:52;;;;;;;5.32;1.60;;;;;;;20.63;46.35;100044.97;4489709;31;33220;-61
2022/07/09 02:11:19;;;;;;;6.28;2.20;;;;;;;21.02;45.53;100046.91;4492044;31;33852;-63
2022/07/09 02:13:47;;;;;;;4.85;1.98;;;;;;;20.80;45.83;100050.37;4498210;31;35231;-62
2022/07/09 02:16:14;;;;;;;6.40;2.22;;;;;;;20.96;45.69;100053.03;4496273;31;34022;-62
2022/07/09 02:18:42;;;;;;;5.43;2.35;;;;;;;20.57;46.54;100058.41;4495228;31;33378;-63
2022/07/09 02:21:11;;;;;;;6.43;2.00;;;;;;;21.09;45.18;100058.81;4493525;31;33570;-62
2022/07/09 02:23:38;;;;;;;5.78;1.98;;;;;;;21.36;44.69;100053.97;4499397;31;32904;-62
2022/07/09 02:26:06;;;;;;;5.75;2.03;;;;;;;20.99;45.46;100057.28;4497153;31;32857;-62
2022/07/09 02:28:34;;;;;;;5.72;1.77;;;;;;;21.16;44.98;100043.47;4496201;31;32991;-63
2022/07/09 02:31:02;;;;;;;6.10;2.03;;;;;;;20.62;46.32;100051.44;4498171;31;35386;-61
2022/07/09 02:33:31;;;;;;;4.97;2.00;;;;;;;20.22;47.35;100058.56;4494795;31;35245;-60
2022/07/09 02:35:59;;;;;;;5.12;1.98;;;;;;;20.15;47.62;100045.81;4491694;31;33689;-60
2022/07/09 02:38:26;;;;;;;6.22;2.53;;;;;;;19.99;48.05;100049.38;4496514;31;34356;-62
2022/07/09 02:40:54;;;;;;;5.87;2.12;;;;;;;19.97;48.33;100057.69;4495490;31;34955;-60
2022/07/09 02:43:21;;;;;;;5.37;2.45;;;;;;;20.01;48.23;100060.91;4495422;31;34579;-61
2022/07/09 02:45:51;;;;;;;3.83;1.50;;;;;;;19.65;49.13;100058.47;4494363;31;33457;-59
2022/07/09 02:48:19;;;;;;;3.20;1.52;;;;;;;20.14;47.83;100055.84;4495648;31;34436;-59
2022/07/09 02:50:46;;;;;;;5.45;2.10;;;;;;;20.47;47.08;100055.81;4495791;31;34974;-60
2022/07/09 02:53:14;;;;;;;5.93;2.30;;;;;;;20.40;47.25;100049.38;4489798;31;33752;-62
2022/07/09 02:55:42;;;;;;;6.37;2.37;;;;;;;20.12;47.75;100048.88;4492653;31;32559;-60
2022/07/09 02:58:10;;;;;;;6.18;2.17;;;;;;;20.35;47.40;100058.06;4494643;31;34405;-61
2022/07/09 03:00:41;;;;;;;7.50;2.75;;;;;;;20.10;47.95;100051.75;4498694;31;32609;-59
2022/07/09 03:03:09;;;;;;;7.37;2.22;;;;;;;20.13;47.65;100058.72;4495242;31;35277;-59
2022/07/09 03:05:37;;;;;;;5.85;2.28;;;;;;;19.82;48.68;100050.37;4489754;31;33692;-60
2022/07/09 03:08:05;;;;;;;6.37;2.33;;;;;;;19.83;48.73;100049.34;4496594;31;32366;-60
2022/07/09 03:10:33;;;;;;;5.78;2.60;;;;;;;19.72;49.17;100055.94;4494352;31;33818;-59
2022/07/09 03:13:01;;;;;;;5.85;2.10;;;;;;;19.61;49.46;100051.63;4496085;31;32923;-59
2022/07/09 03:15:28;;;;;;;4.40;2.15;;;;;;;19.97;48.93;100054.13;4496557;31;34113;-60
2022/07/09 03:17:57;;;;;;;7.97;2.67;;;;;;;19.71;49.45;100046.97;4497079;31;32144;-60
2022/07/09 03:20:24;;;;;;;3.72;2.05;;;;;;;19.94;48.87;100047.16;4495567;31;33890;-61
2022/07/09 03:22:52;;;;;;;5.95;2.28;;;;;;;20.01;48.64;100050.91;4495132;31;33992;-61
2022/07/09 03:25:20;;;;;;;6.03;2.30;;;;;;;20.16;48.33;100053.81;4495855;31;33666;-59
2022/07/09 03:27:47;;;;;;;5.95;2.67;;;;;;;20.08;48.67;100058.38;4497463;31;33370;-60
2022/07/09 03:30:15;;;;;;;6.80;2.50;;;;;;;20.06;48.70;100049.53;4494570;31;34983;-62
2022/07/09 03:32:43;;;;;;;4.95;2.40;;;;;;;19.90;49.39;100053.06;4498690;31;33732;-61
2022/07/09 03:35:10;;;;;;;7.65;2.50;;;;;;;20.12;48.75;100054.28;4497115;31;33650;-60
2022/07/09 03:37:38;;;;;;;4.35;2.37;;;;;;;19.84;49.59;100059.19;4497705;31;34453;-60
2022/07/09 03:40:06;;;;;;;7.00;2.42;;;;;;;19.67;49.84;100056.44;4498444;31;34405;-63
2022/07/09 03:42:34;;;;;;;6.40;2.37;;;;;;;19.51;50.24;100065.34;4491522;31;33244;-62
2022/07/09 03:45:01;;;;;;;5.80;2.80;;;;;;;19.58;50.16;100070.13;4497664;31;33659;-61
2022/07/09 03:47:30;;;;;;;4.57;2.05;;;;;;;19.51;50.34;100067.22;4492483;31;33207;-60
2022/07/09 03:49:57;;;;;;;4.22;2.42;;;;;;;19.53;50.44;100062.47;4497811;31;34855;-60
2022/07/09 03:52:24;;;;;;;5.22;2.03;;;;;;;19.63;50.12;100070.47;4497304;31;33961;-62
2022/07/09 03:54:52;;;;;;;9.00;3.37;;;;;;;19.50;50.57;100069.09;4497689;31;33025;-62
2022/07/09 03:57:20;;;;;;;5.40;2.60;;;;;;;19.90;49.49;100058.50;4494705;31;33304;-59
2022/07/09 03:59:47;;;;;;;8.35;3.15;;;;;;;19.51;50.40;100072.62;4492653;31;34951;-61
2022/07/09 04:02:15;;;;;;;6.00;2.87;;;;;;;19.53;50.37;100066.03;4495902;31;34987;-62
2022/07/09 04:04:43;;;;;;;8.32;2.42;;;;;;;19.92;49.49;100064.63;4498192;31;33831;-60
2022/07/09 04:07:11;;;;;;;5.82;2.55;;;;;;;19.76;49.99;100062.75;4496613;31;34063;-61
2022/07/09 04:09:38;;;;;;;7.85;2.50;;;;;;;19.89;49.63;100075.84;4496917;31;33740;-60
2022/07/09 04:12:07;;;;;;;6.15;2.72;;;;;;;19.81;49.85;100073.09;4497329;31;32912;-62
2022/07/09 04:14:34;;;;;;;6.55;2.78;;;;;;;19.82;49.73;100082.97;4493270;31;33602;-62
2022/07/09 04:17:02;;;;;;;6.05;2.90;;;;;;;19.92;49.50;100076.34;4492885;31;33194;-60
2022/07/09 04:19:30;;;;;;;8.00;2.67;;;;;;;19.40;50.84;100089.25;4497802;31;33404;-62
2022/07/09 04:21:57;;;;;;;6.32;2.85;;;;;;;19.96;49.63;100085.00;4497881;31;34109;-59
2022/07/09 04:24:25;;;;;;;7.45;3.03;;;;;;;19.75;50.08;100078.19;4496886;31;33462;-64
2022/07/09 04:26:52;;;;;;;8.45;2.78;;;;;;;20.37;48.63;100076.91;4490261;31;34563;-60
2022/07/09 04:29:20;;;;;;;6.12;2.65;;;;;;;20.54;48.19;100077.78;4485329;31;33616;-62
2022/07/09 04:31:47;;;;;;;7.28;2.87;;;;;;;20.86;47.40;100085.88;4491786;31;33567;-60
2022/07/09 04:34:15;;;;;;;6.37;2.72;;;;;;;19.87;49.70;100078.72;4492626;31;33901;-61
2022/07/09 04:36:44;;;;;;;5.57;2.62;;;;;;;20.45;48.56;100075.03;4496305;31;33331;-60
2022/07/09 04:39:11;;;;;;;4.78;2.40;;;;;;;20.67;48.12;100078.09;4494429;31;32622;-61
2022/07/09 04:41:39;;;;;;;8.98;3.40;;;;;;;20.32;48.69;100080.16;4497126;31;33950;-62
2022/07/09 04:44:07;;;;;;;6.05;2.90;;;;;;;20.50;47.81;100073.69;4497046;31;32778;-61
2022/07/09 04:46:34;;;;;;;6.32;2.78;;;;;;;19.92;49.13;100087.22;4497149;31;34805;-60
2022/07/09 04:49:02;;;;;;;6.30;2.97;;;;;;;19.84;49.31;100083.63;4495708;31;34866;-60
2022/07/09 04:51:30;;;;;;;4.50;2.47;;;;;;;20.18;48.67;100088.94;4497300;31;33918;-61
2022/07/09 04:53:57;;;;;;;8.77;3.03;;;;;;;20.09;48.61;100081.81;4495155;31;33899;-60
2022/07/09 04:56:25;;;;;;;5.60;2.65;;;;;;;20.57;47.90;100077.44;4495454;31;35275;-62
2022/07/09 04:58:53;;;;;;;6.85;2.60;;;;;;;20.74;47.21;100080.97;4497734;31;33610;-60
2022/07/09 05:01:21;;;;;;;6.25;2.95;;;;;;;20.74;47.26;100086.41;4497147;31;33893;-62
2022/07/09 05:03:49;;;;;;;5.78;2.78;;;;;;;20.34;48.17;100079.97;4496597;31;33870;-61
2022/07/09 05:06:18;;;;;;;5.22;2.58;;;;;;;20.54;47.61;100075.91;4495032;31;34204;-61
2022/07/09 05:08:47;;;;;;;7.85;3.42;;;;;;;20.48;47.91;100081.97;4496128;31;33684;-61
2022/07/09 05:11:15;;;;;;;6.25;3.33;;;;;;;19.90;49.20;100081.13;4495420;31;34112;-62
2022/07/09 05:13:48;;;;;;;6.37;2.90;;;;;;;19.84;49.60;100078.19;4496969;31;33628;-61
2022/07/09 05:16:16;;;;;;;6.90;2.90;;;;;;;20.27;48.90;100078.94;4497393;31;33150;-62
2022/07/09 05:18:43;;;;;;;7.10;2.95;;;;;;;20.45;48.35;100077.75;4494427;31;33478;-62
2022/07/09 05:21:11;;;;;;;5.85;3.03;;;;;;;20.00;49.13;100083.69;4489083;31;35043;-62
2022/07/09 05:23:39;;;;;;;9.80;2.65;;;;;;;19.95;49.45;100078.72;4498631;31;33630;-60
2022/07/09 05:26:07;;;;;;;4.57;2.45;;;;;;;20.19;49.87;100079.78;4494892;31;33157;-62
2022/07/09 05:28:34;;;;;;;5.65;2.90;;;;;;;20.02;49.28;100078.91;4497430;31;33715;-63
2022/07/09 05:31:03;;;;;;;8.52;3.20;;;;;;;19.76;50.30;100077.16;4496409;31;33671;-62
2022/07/09 05:33:51;;;;;;;7.57;3.10;;;;;;;20.11;49.48;100085.22;4495839;31;34652;-61
2022/07/09 05:36:19;;;;;;;4.43;2.72;;;;;;;20.09;49.05;100090.81;4495941;31;34786;-61
2022/07/09 05:38:47;;;;;;;6.85;2.72;;;;;;;20.25;48.83;100082.66;4495515;31;33420;-60
2022/07/09 05:41:15;;;;;;;5.93;2.83;;;;;;;19.85;50.27;100082.62;4496161;31;32595;-62
2022/07/09 05:43:43;;;;;;;8.13;3.50;;;;;;;19.83;49.82;100090.09;4497763;31;33755;-60
2022/07/09 05:46:10;;;;;;;9.45;3.10;;;;;;;19.57;50.89;100099.13;4496599;31;33467;-63
2022/07/09 05:48:38;;;;;;;6.32;2.92;;;;;;;19.85;49.87;100086.19;4496518;31;33535;-60
2022/07/09 05:51:06;;;;;;;6.12;2.92;;;;;;;20.35;49.03;100087.97;4493871;31;34349;-63
2022/07/09 05:53:33;;;;;;;5.95;2.78;;;;;;;20.30;48.65;100090.31;4491286;31;33818;-63
2022/07/09 05:56:01;;;;;;;7.43;2.70;;;;;;;20.36;49.32;100088.81;4492705;31;34243;-61
2022/07/09 05:58:29;;;;;;;7.10;2.97;;;;;;;20.50;48.96;100090.00;4491421;31;34679;-60
2022/07/09 06:00:56;;;;;;;5.32;2.47;;;;;;;20.62;48.21;100092.22;4494737;31;34102;-62
2022/07/09 06:03:24;;;;;;;8.35;3.12;;;;;;;20.98;48.05;100093.69;4485837;31;34831;-61
2022/07/09 06:05:52;;;;;;;5.20;2.78;;;;;;;20.47;48.43;100083.00;4491800;31;33200;-61
2022/07/09 06:08:20;;;;;;;6.22;3.08;;;;;;;20.41;48.83;100087.25;4488505;31;33900;-62
2022/07/09 06:10:48;;;;;;;6.32;3.20;;;;;;;20.17;49.39;100084.53;4491291;31;33698;-61
2022/07/09 06:13:16;;;;;;;7.15;2.87;;;;;;;20.20;49.15;100085.06;4492604;31;34894;-60
2022/07/09 06:15:43;;;;;;;6.05;2.97;;;;;;;20.37;48.48;100085.06;4494220;31;34360;-61
2022/07/09 06:18:11;;;;;;;6.07;2.95;;;;;;;20.61;48.67;100070.63;4494440;31;33882;-62
2022/07/09 06:20:39;;;;;;;7.57;3.30;;;;;;;20.59;48.53;100078.97;4491077;31;34456;-63
2022/07/09 06:23:07;;;;;;;5.78;2.95;;;;;;;20.60;48.09;100080.66;4497772;31;34034;-61
2022/07/09 06:25:35;;;;;;;6.82;3.00;;;;;;;21.05;47.25;100079.22;4497793;31;34921;-62
2022/07/09 06:28:03;;;;;;;8.48;2.70;;;;;;;21.35;46.86;100077.63;4493639;31;33926;-62
2022/07/09 06:30:31;;;;;;;5.25;2.72;;;;;;;21.06;47.83;100089.09;4495531;31;32739;-60
2022/07/09 06:32:58;;;;;;;5.87;2.80;;;;;;;21.17;46.90;100086.00;4499215;31;35032;-62
2022/07/09 06:35:26;;;;;;;5.55;2.80;;;;;;;20.69;48.51;100089.66;4498346;31;33499;-61
2022/07/09 06:37:54;;;;;;;6.10;3.03;;;;;;;21.22;46.81;100090.03;4497712;31;33228;-63
2022/07/09 06:40:21;;;;;;;6.35;3.62;;;;;;;21.37;46.44;100091.06;4498466;31;33762;-61
2022/07/09 06:42:49;;;;;;;7.47;3.50;;;;;;;21.27;47.05;100087.66;4499531;31;33916;-61
2022/07/09 06:45:17;;;;;;;8.13;3.20;;;;;;;21.13;47.08;100089.25;4498367;31;32132;-60
2022/07/09 06:47:45;;;;;;;6.45;2.97;;;;;;;21.04;47.81;100087.56;4499033;31;33603;-62
2022/07/09 06:50:12;;;;;;;6.75;3.12;;;;;;;21.06;47.23;100078.22;4492319;31;32410;-63
2022/07/09 06:52:40;;;;;;;6.62;3.05;;;;;;;21.17;47.71;100082.41;4497287;31;33466;-61
2022/07/09 06:55:08;;;;;;;7.18;3.85;;;;;;;21.72;46.63;100078.81;4497241;31;33254;-63
2022/07/09 06:57:36;;;;;;;9.48;2.92;;;;;;;21.37;46.69;100078.28;4495155;31;33722;-60
2022/07/09 07:00:07;;;;;;;8.73;3.05;;;;;;;21.73;46.52;100077.75;4490009;31;34142;-60
2022/07/09 07:02:35;;;;;;;7.50;3.03;;;;;;;21.93;45.93;100083.63;4497944;31;33954;-61
2022/07/09 07:05:03;;;;;;;5.68;2.58;;;;;;;22.07;45.02;100082.00;4498162;31;32012;-63
2022/07/09 07:07:31;;;;;;;8.63;3.22;;;;;;;21.80;45.53;100081.50;4489661;31;32860;-61
2022/07/09 07:09:58;;;;;;;6.00;3.10;;;;;;;21.68;46.25;100082.06;4484490;31;34077;-62
2022/07/09 07:12:26;;;;;;;8.57;3.33;;;;;;;21.34;46.40;100075.03;4498130;31;35416;-62
2022/07/09 07:14:53;;;;;;;6.47;3.15;;;;;;;21.71;46.15;100071.66;4487534;31;33485;-60
2022/07/09 07:17:21;;;;;;;7.45;3.62;;;;;;;21.55;46.25;100078.03;4497905;31;33893;-61
2022/07/09 07:19:49;;;;;;;6.65;3.00;;;;;;;21.91;45.80;100072.06;4497345;31;33992;-60
2022/07/09 07:22:16;;;;;;;5.35;2.60;;;;;;;21.65;46.57;100071.53;4497396;31;33678;-63
2022/07/09 07:24:44;;;;;;;6.40;2.58;;;;;;;22.02;45.87;100073.50;4496408;31;33203;-62
2022/07/09 07:27:12;;;;;;;6.70;3.10;;;;;;;21.95;45.68;100070.66;4487209;31;33370;-62
2022/07/09 07:29:39;;;;;;;4.90;2.62;;;;;;;22.02;45.46;100068.06;4485390;31;32789;-61
2022/07/09 07:32:08;;;;;;;6.78;2.87;;;;;;;21.68;45.95;100077.47;4498444;31;34810;-63
2022/07/09 07:34:36;;;;;;;5.62;2.60;;;;;;;21.72;46.32;100072.50;4500836;31;33806;-62
2022/07/09 07:37:03;;;;;;;7.00;2.83;;;;;;;22.00;45.73;100068.25;4498357;31;33857;-62
2022/07/09 07:39:31;;;;;;;6.68;3.10;;;;;;;22.51;44.90;100065.84;4498021;31;34096;-62
2022/07/09 07:41:59;;;;;;;4.15;2.58;;;;;;;22.69;44.55;100070.09;4500025;31;33518;-61
2022/07/09 07:44:28;;;;;;;7.68;2.70;;;;;;;22.39;44.46;100071.91;4500650;31;34521;-61
2022/07/09 07:46:56;;;;;;;5.93;2.50;;;;;;;22.77;43.96;100062.69;4498802;31;33838;-61
2022/07/09 07:49:24;;;;;;;4.55;2.25;;;;;;;23.06;43.51;100063.78;4499698;31;32730;-60
2022/07/09 07:51:51;;;;;;;6.55;2.92;;;;;;;22.70;43.61;100059.00;4500383;31;33929;-60
2022/07/09 07:54:19;;;;;;;5.62;2.67;;;;;;;22.83;43.24;100063.81;4500637;31;33434;-61
2022/07/09 07:56:47;;;;;;;7.20;3.17;;;;;;;23.10;43.31;100064.25;4499669;31;33859;-62
2022/07/09 07:59:14;;;;;;;7.45;2.60;;;;;;;22.56;43.08;100047.00;4497593;31;35308;-61
2022/07/09 08:01:42;;;;;;;6.78;2.67;;;;;;;23.35;42.18;100053.87;4489236;31;33747;-61
2022/07/09 08:04:10;;;;;;;5.32;3.08;;;;;;;23.29;42.57;100054.63;4494659;31;33229;-62
2022/07/09 08:06:37;;;;;;;5.07;2.72;;;;;;;22.67;43.11;100053.06;4500535;31;34882;-62
2022/07/09 08:09:05;;;;;;;4.70;2.70;;;;;;;22.91;43.22;100044.63;4498555;31;33753;-61
2022/07/09 08:11:33;;;;;;;7.00;3.03;;;;;;;23.00;42.92;100059.06;4497893;31;33741;-61
2022/07/09 08:14:01;;;;;;;8.02;2.90;;;;;;;22.99;42.45;100047.31;4500188;31;34266;-60
2022/07/09 08:16:29;;;;;;;4.05;2.30;;;;;;;23.58;41.50;100042.81;4499607;31;33954;-61
2022/07/09 08:18:57;;;;;;;6.72;2.65;;;;;;;22.94;42.29;100040.72;4498044;31;33924;-63
2022/07/09 08:21:24;;;;;;;5.65;2.35;;;;;;;23.42;42.02;100024.75;4496775;31;33916;-65
2022/07/09 08:23:53;;;;;;;6.68;2.75;;;;;;;23.76;40.74;100020.56;4492169;31;31731;-62
2022/07/09 08:26:23;;;;;;;6.28;2.65;;;;;;;23.64;40.63;100034.69;4493336;31;33536;-62
2022/07/09 08:28:51;;;;;;;7.60;2.60;;;;;;;23.63;40.56;100032.16;4492413;31;33571;-62
2022/07/09 08:31:19;;;;;;;5.57;2.60;;;;;;;23.75;41.03;100027.06;4498161;31;33946;-61
2022/07/09 08:33:47;;;;;;;5.90;1.90;;;;;;;23.92;39.33;100029.38;4496756;31;35025;-62
2022/07/09 08:36:15;;;;;;;5.18;2.67;;;;;;;23.93;39.72;100035.66;4492066;31;33841;-64
2022/07/09 08:38:43;;;;;;;5.75;2.37;;;;;;;23.84;39.08;100024.00;4493771;31;34191;-62
2022/07/09 08:41:12;;;;;;;7.30;2.42;;;;;;;23.77;39.71;100031.28;4498949;31;33762;-63
2022/07/09 08:43:40;;;;;;;3.87;1.80;;;;;;;23.97;40.04;100022.47;4491446;31;33120;-64
2022/07/09 08:46:08;;;;;;;3.50;2.05;;;;;;;24.18;38.95;100023.31;4495936;31;33780;-62
2022/07/09 08:48:36;;;;;;;5.37;2.12;;;;;;;24.20;37.49;100020.34;4498810;31;33725;-62
2022/07/09 08:51:05;;;;;;;5.47;2.33;;;;;;;24.14;37.06;100019.28;4495105;31;34127;-62
2022/07/09 08:53:34;;;;;;;5.57;2.08;;;;;;;24.27;38.05;100015.81;4496816;31;34538;-62
2022/07/09 08:56:02;;;;;;;5.43;1.92;;;;;;;24.55;36.83;100015.00;4495556;31;34959;-63
2022/07/09 08:58:31;;;;;;;6.95;2.10;;;;;;;24.67;35.74;100009.84;4488674;31;34023;-62
2022/07/09 09:01:00;;;;;;;3.70;1.70;;;;;;;24.72;34.93;100016.41;4494080;31;33695;-62
2022/07/09 09:03:28;;;;;;;6.55;2.22;;;;;;;24.27;36.54;100012.22;4496196;31;33289;-62
2022/07/09 09:06:03;;;;;;;4.50;1.60;;;;;;;24.22;36.23;100006.50;4499814;31;33830;-61
2022/07/09 09:08:42;;;;;;;4.12;1.98;;;;;;;24.34;35.71;100013.97;4497615;31;33668;-62
2022/07/09 09:11:14;;;;;;;3.17;1.83;;;;;;;24.67;35.95;100009.84;4498247;31;34770;-62
2022/07/09 09:13:43;;;;;;;4.15;1.83;;;;;;;24.64;36.48;100003.69;4500870;31;33401;-61
2022/07/09 09:16:12;;;;;;;5.12;1.80;;;;;;;25.42;34.69;100008.16;4492773;31;33667;-59
2022/07/09 09:18:41;;;;;;;4.12;1.90;;;;;;;25.20;33.45;100001.94;4498223;31;34092;-61
2022/07/09 09:21:10;;;;;;;6.00;2.15;;;;;;;25.40;33.41;100000.16;4490758;31;32355;-61
2022/07/09 09:23:44;;;;;;;4.18;1.60;;;;;;;25.12;34.14;100011.19;4492579;31;33459;-61
2022/07/09 09:26:16;;;;;;;6.72;1.90;;;;;;;24.91;34.20;100008.50;4498612;31;34768;-60
2022/07/09 09:28:47;;;;;;;4.20;1.65;;;;;;;25.32;33.21;99997.56;4500331;31;34126;-62
2022/07/09 09:31:28;;;;;;;5.72;1.50;;;;;;;25.64;32.17;99989.69;4494093;31;33841;-60
2022/07/09 09:33:57;;;;;;;5.07;1.80;;;;;;;25.96;32.03;99983.44;4492508;31;33517;-61
2022/07/09 09:36:36;;;;;;;3.72;1.60;;;;;;;26.01;32.36;99989.16;4497107;31;34649;-63
2022/07/09 09:39:16;;;;;;;4.68;1.80;;;;;;;26.14;32.61;99976.50;4500538;31;33709;-65
2022/07/09 09:41:49;;;;;;;4.15;1.80;;;;;;;26.17;32.21;99970.59;4499860;31;35184;-64
2022/07/09 09:44:25;;;;;;;5.05;1.62;;;;;;;26.71;31.59;99978.59;4499546;31;34586;-64
2022/07/09 09:46:54;;;;;;;4.05;1.77;;;;;;;26.48;30.85;99978.19;4492208;31;33752;-64
2022/07/09 09:49:22;;;;;;;7.03;2.00;;;;;;;26.64;31.28;99976.91;4497609;31;33814;-62
2022/07/09 09:52:08;;;;;;;5.47;1.70;;;;;;;26.44;32.17;99979.66;4498544;31;34001;-62
2022/07/09 09:54:38;;;;;;;5.30;1.70;;;;;;;26.85;30.86;99973.91;4496827;31;31647;-62
2022/07/09 09:57:07;;;;;;;3.72;1.65;;;;;;;26.94;30.76;99969.03;4500094;31;33702;-64
2022/07/09 09:59:37;;;;;;;4.20;1.90;;;;;;;27.08;29.91;99961.59;4498601;31;35276;-63
2022/07/09 10:02:11;;;;;;;4.55;1.67;;;;;;;27.12;29.33;99965.56;4499646;31;33647;-64
2022/07/09 10:04:41;;;;;;;4.28;1.60;;;;;;;27.08;29.58;99962.44;4487120;31;31812;-63
2022/07/09 10:07:10;;;;;;;4.37;1.67;;;;;;;27.15;29.67;99951.44;4487766;31;32540;-66
2022/07/09 10:09:38;;;;;;;5.30;1.75;;;;;;;27.05;29.63;99965.59;4484993;31;35307;-63
2022/07/09 10:12:09;;;;;;;2.37;1.30;;;;;;;26.52;30.06;99956.66;4499921;31;33605;-61
2022/07/09 10:14:38;;;;;;;4.53;1.62;;;;;;;26.93;29.30;99959.09;4498761;31;32788;-61
2022/07/09 10:17:14;;;;;;;4.03;1.67;;;;;;;26.79;29.15;99962.94;4487230;31;32437;-62
2022/07/09 10:19:55;;;;;;;5.57;1.62;;;;;;;27.52;28.74;99969.03;4491266;31;34196;-60
2022/07/09 10:22:45;;;;;;;5.37;1.92;;;;;;;27.26;29.24;99959.00;4488791;31;32345;-60
2022/07/09 10:25:22;;;;;;;9.23;1.90;;;;;;;27.14;29.71;99972.59;4496179;31;33448;-63
2022/07/09 10:27:50;;;;;;;5.35;1.58;;;;;;;26.79;29.42;99946.47;4496922;31;33559;-60
2022/07/09 10:30:29;;;;;;;2.72;1.60;;;;;;;26.97;29.91;99957.63;4484688;31;33517;-61
2022/07/09 10:33:02;;;;;;;3.92;1.50;;;;;;;27.22;28.81;99940.41;4499204;31;34391;-61
2022/07/09 10:35:30;;;;;;;4.25;1.67;;;;;;;27.78;27.51;99947.97;4498752;31;33548;-61
2022/07/09 10:37:58;;;;;;;5.40;1.45;;;;;;;28.13;27.18;99937.31;4491861;31;32573;-61
2022/07/09 10:40:28;;;;;;;5.18;1.50;;;;;;;28.09;27.22;99930.59;4503159;31;35258;-63
2022/07/09 10:43:03;;;;;;;4.05;1.50;;;;;;;27.73;27.78;99920.25;4498178;31;33704;-63
2022/07/09 10:45:39;;;;;;;5.45;1.62;;;;;;;27.71;27.77;99936.12;4497259;31;35060;-62
2022/07/09 10:48:09;;;;;;;5.40;1.62;;;;;;;27.55;27.88;99935.59;4497589;31;33824;-62
2022/07/09 10:50:40;;;;;;;3.25;1.40;;;;;;;27.41;28.69;99933.97;4484138;32;33304;-61
2022/07/09 10:53:08;;;;;;;2.70;1.40;;;;;;;27.73;27.71;99931.25;4492077;31;34028;-63
2022/07/09 10:55:36;;;;;;;3.83;1.60;;;;;;;28.66;26.52;99916.72;4497424;31;33375;-61
2022/07/09 10:58:07;;;;;;;3.75;1.67;;;;;;;27.86;26.80;99914.66;4496147;31;33712;-63
2022/07/09 11:00:35;;;;;;;3.78;1.50;;;;;;;27.69;27.20;99930.00;4497227;31;34755;-62
2022/07/09 11:03:04;;;;;;;6.30;1.83;;;;;;;27.94;27.49;99921.81;4496571;31;34808;-61
2022/07/09 11:05:34;;;;;;;4.90;1.58;;;;;;;28.12;27.15;99918.28;4498158;31;33184;-61
2022/07/09 11:08:03;;;;;;;4.50;1.70;;;;;;;27.56;27.46;99918.03;4487947;31;33884;-62
2022/07/09 11:10:32;;;;;;;3.97;1.50;;;;;;;27.68;27.66;99915.44;4495535;31;35248;-61
2022/07/09 11:13:00;;;;;;;3.15;1.50;;;;;;;28.34;27.56;99922.28;4500785;31;33921;-61
2022/07/09 11:15:33;;;;;;;4.62;1.42;;;;;;;28.14;27.58;99916.16;4500439;31;33537;-60
2022/07/09 11:18:12;;;;;;;4.82;1.40;;;;;;;28.32;26.45;99916.19;4498436;31;34000;-62
2022/07/09 11:20:43;;;;;;;2.33;1.20;;;;;;;28.31;25.70;99926.38;4489066;31;32472;-61
2022/07/09 11:23:12;;;;;;;4.07;1.20;;;;;;;27.91;25.72;99911.28;4485761;32;33197;-63
2022/07/09 11:25:40;;;;;;;2.85;1.23;;;;;;;28.04;26.37;99908.41;4496604;31;32270;-61
2022/07/09 11:28:08;;;;;;;3.25;1.40;;;;;;;28.05;27.20;99910.06;4497336;31;34037;-61
2022/07/09 11:30:40;;;;;;;4.93;1.25;;;;;;;27.83;27.35;99899.47;4493468;31;33841;-61
2022/07/09 11:33:11;;;;;;;2.28;1.20;;;;;;;27.76;27.06;99898.62;4498695;31;33730;-61